createdAt,value
2018-04-29T00:01:37.589Z,23.67
2018-04-29T00:04:05.036Z,24.17
2018-04-29T00:06:32.494Z,22.93
2018-04-29T00:08:59.917Z,24.13
2018-04-29T00:11:27.411Z,23.30
2018-04-29T00:13:54.830Z,25.20
2018-04-29T00:16:22.322Z,22.40
2018-04-29T00:18:49.741Z,25.30
2018-04-29T00:21:17.202Z,23.50
2018-04-29T00:23:44.618Z,23.10
2018-04-29T00:26:12.146Z,23.80
2018-04-29T00:28:39.606Z,22.93
2018-04-29T00:31:07.074Z,21.60
2018-04-29T00:33:34.490Z,23.00
2018-04-29T00:36:01.916Z,21.67
2018-04-29T00:38:29.433Z,22.63
2018-04-29T00:40:56.858Z,22.93
2018-04-29T00:43:24.338Z,22.13
2018-04-29T00:45:51.760Z,24.10
2018-04-29T00:48:19.258Z,24.33
2018-04-29T00:50:46.682Z,24.17
2018-04-29T00:53:14.180Z,22.70
2018-04-29T00:55:41.561Z,24.13
2018-04-29T00:58:09.009Z,26.17
2018-04-29T01:00:36.438Z,24.10
2018-04-29T01:03:03.950Z,25.07
2018-04-29T01:05:31.454Z,24.03
2018-04-29T01:07:58.904Z,25.37
2018-04-29T01:10:26.321Z,23.80
2018-04-29T01:12:53.769Z,22.83
2018-04-29T01:15:21.186Z,23.07
2018-04-29T01:17:48.646Z,24.60
2018-04-29T01:20:16.058Z,23.53
2018-04-29T01:22:43.553Z,26.03
2018-04-29T01:25:11.016Z,26.30
2018-04-29T01:27:38.670Z,24.57
2018-04-29T01:30:06.130Z,24.50
2018-04-29T01:32:33.554Z,23.80
2018-04-29T01:35:01.047Z,28.33
2018-04-29T01:37:28.501Z,27.17
2018-04-29T01:39:56.063Z,24.07
2018-04-29T01:42:23.486Z,24.17
2018-04-29T01:44:50.934Z,24.10
2018-04-29T01:47:18.365Z,23.47
2018-04-29T01:49:45.810Z,26.47
2018-04-29T01:52:13.242Z,24.40
2018-04-29T01:54:40.686Z,26.90
2018-04-29T01:57:08.161Z,27.10
2018-04-29T01:59:35.657Z,27.07
2018-04-29T02:02:03.166Z,29.20
2018-04-29T02:04:30.614Z,29.37
2018-04-29T02:06:58.030Z,30.27
2018-04-29T02:09:25.498Z,27.73
2018-04-29T02:11:52.909Z,24.57
2018-04-29T02:14:20.362Z,27.37
2018-04-29T02:16:47.898Z,25.30
2018-04-29T02:19:15.306Z,25.57
2018-04-29T02:21:42.770Z,28.63
2018-04-29T02:24:10.181Z,29.00
2018-04-29T02:26:37.742Z,26.07
2018-04-29T02:29:05.153Z,29.23
2018-04-29T02:31:32.648Z,26.90
2018-04-29T02:34:00.074Z,25.43
2018-04-29T02:36:27.557Z,27.17
2018-04-29T02:38:54.982Z,28.10
2018-04-29T02:41:22.473Z,27.07
2018-04-29T02:43:49.894Z,29.03
2018-04-29T02:46:17.338Z,28.77
2018-04-29T02:48:44.842Z,29.20
2018-04-29T02:51:12.221Z,30.63
2018-04-29T02:53:39.641Z,26.10
2018-04-29T02:56:07.126Z,27.43
2018-04-29T02:58:34.575Z,28.20
2018-04-29T03:01:02.022Z,31.30
2018-04-29T03:03:30.397Z,25.63
2018-04-29T03:05:57.822Z,24.87
2018-04-29T03:08:25.261Z,28.77
2018-04-29T03:10:52.785Z,27.93
2018-04-29T03:13:20.226Z,30.27
2018-04-29T03:15:47.692Z,30.27
2018-04-29T03:18:15.145Z,29.83
2018-04-29T03:20:42.570Z,28.93
2018-04-29T03:23:10.064Z,30.80
2018-04-29T03:25:37.522Z,26.63
2018-04-29T03:28:04.989Z,27.83
2018-04-29T03:30:32.415Z,27.37
2018-04-29T03:32:59.871Z,30.10
2018-04-29T03:35:27.342Z,30.40
2018-04-29T03:37:54.769Z,26.83
2018-04-29T03:40:22.205Z,32.47
2018-04-29T03:42:49.714Z,30.57
2018-04-29T03:45:18.082Z,31.53
2018-04-29T03:47:45.507Z,30.90
2018-04-29T03:50:14.028Z,30.03
2018-04-29T03:52:41.449Z,33.07
2018-04-29T03:55:08.903Z,33.30
2018-04-29T03:57:48.189Z,33.40
2018-04-29T04:00:27.613Z,31.90
2018-04-29T04:03:06.828Z,31.83
2018-04-29T04:05:34.286Z,32.43
2018-04-29T04:08:01.714Z,30.70
2018-04-29T04:10:29.226Z,30.83
2018-04-29T04:12:57.571Z,30.57
2018-04-29T04:15:25.058Z,31.30
2018-04-29T04:17:52.504Z,29.37
2018-04-29T04:20:19.963Z,29.67
2018-04-29T04:22:47.413Z,28.70
2018-04-29T04:25:14.863Z,31.37
2018-04-29T04:27:42.277Z,32.40
2018-04-29T04:30:09.746Z,29.93
2018-04-29T04:32:37.161Z,33.93
2018-04-29T04:35:04.613Z,33.73
2018-04-29T04:37:32.157Z,34.20
2018-04-29T04:39:59.614Z,35.20
2018-04-29T04:42:27.069Z,35.73
2018-04-29T04:44:54.489Z,35.23
2018-04-29T04:47:21.933Z,36.47
2018-04-29T04:49:49.445Z,33.07
2018-04-29T04:52:16.889Z,38.83
2018-04-29T04:54:44.309Z,35.83
2018-04-29T04:57:11.814Z,36.70
2018-04-29T04:59:39.228Z,37.10
2018-04-29T05:02:06.734Z,34.93
2018-04-29T05:04:34.426Z,36.20
2018-04-29T05:07:01.951Z,36.37
2018-04-29T05:09:29.401Z,37.70
2018-04-29T05:11:56.821Z,36.20
2018-04-29T05:14:24.323Z,36.50
2018-04-29T05:16:51.773Z,37.77
2018-04-29T05:19:19.222Z,34.67
2018-04-29T05:21:46.645Z,37.67
2018-04-29T05:24:15.070Z,36.13
2018-04-29T05:26:42.508Z,36.17
2018-04-29T05:29:09.941Z,32.43
2018-04-29T05:31:37.367Z,32.60
2018-04-29T05:34:04.805Z,36.83
2018-04-29T05:36:32.258Z,34.73
2018-04-29T05:38:59.706Z,34.03
2018-04-29T05:41:27.164Z,32.50
2018-04-29T05:43:54.605Z,33.90
2018-04-29T05:46:22.963Z,33.80
2018-04-29T05:48:50.459Z,33.67
2018-04-29T05:51:20.441Z,35.13
2018-04-29T05:53:48.030Z,33.40
2018-04-29T05:56:15.454Z,35.73
2018-04-29T05:58:42.878Z,37.10
2018-04-29T06:01:10.318Z,34.53
2018-04-29T06:03:37.743Z,39.70
2018-04-29T06:06:05.194Z,41.57
2018-04-29T06:08:33.594Z,37.60
2018-04-29T06:11:01.034Z,35.10
2018-04-29T06:13:29.447Z,37.80
2018-04-29T06:15:56.914Z,37.93
2018-04-29T06:18:24.338Z,32.43
2018-04-29T06:20:51.781Z,41.30
2018-04-29T06:23:19.193Z,39.37
2018-04-29T06:25:46.710Z,40.90
2018-04-29T06:28:14.455Z,39.20
2018-04-29T06:30:41.897Z,41.53
2018-04-29T06:33:09.313Z,41.93
2018-04-29T06:35:36.764Z,44.53
2018-04-29T06:38:04.190Z,45.27
2018-04-29T06:40:31.654Z,43.67
2018-04-29T06:42:59.997Z,45.23
2018-04-29T06:45:27.418Z,44.47
2018-04-29T06:47:54.870Z,44.53
2018-04-29T06:50:22.283Z,42.83
2018-04-29T06:52:49.756Z,44.60
2018-04-29T06:55:18.130Z,40.00
2018-04-29T06:57:45.596Z,44.57
2018-04-29T07:00:13.046Z,47.13
2018-04-29T07:02:40.492Z,46.30
2018-04-29T07:05:07.914Z,45.13
2018-04-29T07:07:35.353Z,43.97
2018-04-29T07:10:02.875Z,46.60
2018-04-29T07:12:30.341Z,47.80
2018-04-29T07:14:57.799Z,54.50
2018-04-29T07:17:26.161Z,52.80
2018-04-29T07:19:53.594Z,59.10
2018-04-29T07:22:21.080Z,64.73
2018-04-29T07:24:48.501Z,62.87
2018-04-29T07:27:15.948Z,56.10
2018-04-29T07:29:43.438Z,59.33
2018-04-29T07:32:10.858Z,56.13
2018-04-29T07:34:38.297Z,53.50
2018-04-29T07:37:07.674Z,52.60
2018-04-29T07:39:35.230Z,53.97
2018-04-29T07:42:02.686Z,55.33
2018-04-29T07:44:30.132Z,51.53
2018-04-29T07:46:57.553Z,51.87
2018-04-29T07:49:25.069Z,56.23
2018-04-29T07:51:52.439Z,55.00
2018-04-29T07:54:19.890Z,54.97
2018-04-29T07:56:47.314Z,55.70
2018-04-29T07:59:14.762Z,56.47
2018-04-29T08:01:42.179Z,58.73
2018-04-29T08:04:09.699Z,59.80
2018-04-29T08:06:37.150Z,58.70
2018-04-29T08:09:04.610Z,54.97
2018-04-29T08:11:32.021Z,52.53
2018-04-29T08:13:59.514Z,49.20
2018-04-29T08:16:26.953Z,48.27
2018-04-29T08:18:54.434Z,49.33
2018-04-29T08:21:21.921Z,50.80
2018-04-29T08:23:49.368Z,51.00
2018-04-29T08:26:16.902Z,53.57
2018-04-29T08:28:44.362Z,50.53
2018-04-29T08:31:11.846Z,52.20
2018-04-29T08:33:39.270Z,53.50
2018-04-29T08:36:07.643Z,54.67
2018-04-29T08:38:35.076Z,55.13
2018-04-29T08:41:02.566Z,56.73
2018-04-29T08:43:30.024Z,56.47
2018-04-29T08:45:57.473Z,51.90
2018-04-29T08:48:24.944Z,63.43
2018-04-29T08:50:52.394Z,57.33
2018-04-29T08:53:19.813Z,56.57
2018-04-29T08:55:47.302Z,57.93
2018-04-29T08:58:14.729Z,58.67
2018-04-29T09:00:42.146Z,61.37
2018-04-29T09:03:09.595Z,57.80
2018-04-29T09:05:37.142Z,65.10
2018-04-29T09:08:04.585Z,58.40
2018-04-29T09:10:32.010Z,57.50
2018-04-29T09:12:59.513Z,57.20
2018-04-29T09:15:26.933Z,54.77
2018-04-29T09:17:54.384Z,52.97
2018-04-29T09:20:21.809Z,54.37
2018-04-29T09:22:49.253Z,55.10
2018-04-29T09:25:16.675Z,53.50
2018-04-29T09:27:44.150Z,57.40
2018-04-29T09:30:11.573Z,54.60
2018-04-29T09:32:39.030Z,54.87
2018-04-29T09:35:06.455Z,55.00
2018-04-29T09:37:33.898Z,51.93
2018-04-29T09:40:01.431Z,51.60
2018-04-29T09:42:28.877Z,52.27
2018-04-29T09:44:56.293Z,49.43
2018-04-29T09:47:24.702Z,47.97
2018-04-29T09:49:52.122Z,50.17
2018-04-29T09:52:19.583Z,51.50
2018-04-29T09:54:47.089Z,50.63
2018-04-29T09:57:14.563Z,47.40
2018-04-29T09:59:43.024Z,51.50
2018-04-29T10:02:11.379Z,50.70
2018-04-29T10:04:38.834Z,48.80
2018-04-29T10:07:06.261Z,51.03
2018-04-29T10:09:33.750Z,53.03
2018-04-29T10:12:01.138Z,48.13
2018-04-29T10:14:28.574Z,50.37
2018-04-29T10:16:56.174Z,50.57
2018-04-29T10:19:23.637Z,50.13
2018-04-29T10:21:51.066Z,51.40
2018-04-29T10:24:18.518Z,53.97
2018-04-29T10:26:45.943Z,46.63
2018-04-29T10:29:13.386Z,50.70
2018-04-29T10:31:40.805Z,49.63
2018-04-29T10:34:08.250Z,44.20
2018-04-29T10:36:35.683Z,49.90
2018-04-29T10:39:03.137Z,50.03
2018-04-29T10:41:30.554Z,47.93
2018-04-29T10:43:58.075Z,49.03
2018-04-29T10:46:25.490Z,46.57
2018-04-29T10:48:52.910Z,47.77
2018-04-29T10:51:20.449Z,48.83
2018-04-29T10:53:47.813Z,47.37
2018-04-29T10:56:15.266Z,48.40
2018-04-29T10:58:42.738Z,48.90
2018-04-29T11:01:10.257Z,50.93
2018-04-29T11:03:37.723Z,48.23
2018-04-29T11:06:05.280Z,48.77
2018-04-29T11:08:32.840Z,45.77
2018-04-29T11:11:00.286Z,44.73
2018-04-29T11:13:27.707Z,45.63
2018-04-29T11:15:55.206Z,45.00
2018-04-29T11:18:22.626Z,44.70
2018-04-29T11:20:50.098Z,45.93
2018-04-29T11:23:18.459Z,44.10
2018-04-29T11:25:45.913Z,44.73
2018-04-29T11:28:13.411Z,43.43
2018-04-29T11:30:40.865Z,43.57
2018-04-29T11:33:08.310Z,43.03
2018-04-29T11:35:35.725Z,43.13
2018-04-29T11:38:03.186Z,40.27
2018-04-29T11:40:30.647Z,40.07
2018-04-29T11:42:58.064Z,41.50
2018-04-29T11:45:25.477Z,41.90
2018-04-29T11:47:52.954Z,40.77
2018-04-29T11:50:20.425Z,39.80
2018-04-29T11:52:47.978Z,40.57
2018-04-29T11:55:15.406Z,39.53
2018-04-29T11:57:42.853Z,39.13
2018-04-29T12:00:10.282Z,37.73
2018-04-29T12:02:37.753Z,37.97
2018-04-29T12:05:05.178Z,40.60
2018-04-29T12:07:32.626Z,39.53
2018-04-29T12:10:00.065Z,40.37
2018-04-29T12:12:27.517Z,40.90
2018-04-29T12:14:54.939Z,37.20
2018-04-29T12:17:23.338Z,36.50
2018-04-29T12:19:50.794Z,39.10
2018-04-29T12:22:18.218Z,38.87
2018-04-29T12:24:45.672Z,38.93
2018-04-29T12:27:13.102Z,40.30
2018-04-29T12:29:40.561Z,39.87
2018-04-29T12:32:07.985Z,41.80
2018-04-29T12:34:35.434Z,38.07
2018-04-29T12:37:02.857Z,41.00
2018-04-29T12:39:30.301Z,44.28
2018-04-29T12:41:57.830Z,39.50
2018-04-29T12:44:25.286Z,41.13
2018-04-29T12:46:52.742Z,42.97
2018-04-29T12:49:20.298Z,42.07
2018-04-29T12:51:47.750Z,38.90
2018-04-29T12:54:15.206Z,40.13
2018-04-29T12:56:42.630Z,39.67
2018-04-29T12:59:10.054Z,40.53
2018-04-29T13:01:37.605Z,40.33
2018-04-29T13:04:05.025Z,42.20
2018-04-29T13:06:32.470Z,37.17
2018-04-29T13:08:59.890Z,39.30
2018-04-29T13:11:27.346Z,38.87
2018-04-29T13:13:54.780Z,37.70
2018-04-29T13:16:23.137Z,38.10
2018-04-29T13:18:50.602Z,35.70
2018-04-29T13:21:18.046Z,38.53
2018-04-29T13:23:45.465Z,37.27
2018-04-29T13:26:12.922Z,39.43
2018-04-29T13:28:40.345Z,40.40
2018-04-29T13:31:07.785Z,40.40
2018-04-29T13:33:35.230Z,43.60
2018-04-29T13:36:02.694Z,41.93
2018-04-29T13:38:30.141Z,44.93
2018-04-29T13:40:57.563Z,43.93
2018-04-29T13:43:25.070Z,43.67
2018-04-29T13:45:52.513Z,45.50
2018-04-29T13:48:19.978Z,43.83
2018-04-29T13:50:47.408Z,44.20
2018-04-29T13:53:14.865Z,46.30
2018-04-29T13:55:42.353Z,44.70
2018-04-29T13:58:10.722Z,48.80
2018-04-29T14:00:38.290Z,48.67
2018-04-29T14:03:05.735Z,45.23
2018-04-29T14:05:34.092Z,44.80
2018-04-29T14:08:01.569Z,42.30
2018-04-29T14:10:29.025Z,44.13
2018-04-29T14:12:57.427Z,46.07
2018-04-29T14:15:24.869Z,44.50
2018-04-29T14:17:52.294Z,45.37
2018-04-29T14:20:19.780Z,49.20
2018-04-29T14:22:47.197Z,46.40
2018-04-29T14:25:14.646Z,46.50
2018-04-29T14:27:43.086Z,44.73
2018-04-29T14:30:10.524Z,43.33
2018-04-29T14:32:37.954Z,41.30
2018-04-29T14:35:05.444Z,46.37
2018-04-29T14:37:32.857Z,45.43
2018-04-29T14:40:00.327Z,43.83
2018-04-29T14:42:27.741Z,51.65
2018-04-29T14:44:55.274Z,45.90
2018-04-29T14:47:22.717Z,44.00
2018-04-29T14:49:50.139Z,46.63
2018-04-29T14:52:17.577Z,44.87
2018-04-29T14:54:45.003Z,45.40
2018-04-29T14:57:12.445Z,44.87
2018-04-29T14:59:39.868Z,47.30
2018-04-29T15:02:07.326Z,47.13
2018-04-29T15:04:34.750Z,48.20
2018-04-29T15:07:02.190Z,49.30
2018-04-29T15:09:29.619Z,44.73
2018-04-29T15:11:57.073Z,49.97
2018-04-29T15:14:27.206Z,48.97
2018-04-29T15:16:54.654Z,48.50
2018-04-29T15:19:22.092Z,49.30
2018-04-29T15:21:49.585Z,49.23
2018-04-29T15:24:17.002Z,47.50
2018-04-29T15:26:44.422Z,48.93
2018-04-29T15:29:11.949Z,44.10
2018-04-29T15:31:39.372Z,50.30
2018-04-29T15:34:06.834Z,44.77
2018-04-29T15:36:34.250Z,46.70
2018-04-29T15:39:01.693Z,46.90
2018-04-29T15:41:29.109Z,47.57
2018-04-29T15:43:56.585Z,46.83
2018-04-29T15:46:24.077Z,44.37
2018-04-29T15:48:51.486Z,45.10
2018-04-29T15:51:18.902Z,46.17
2018-04-29T15:53:46.346Z,47.20
2018-04-29T15:56:13.870Z,46.17
2018-04-29T15:58:41.298Z,46.60
2018-04-29T16:01:08.778Z,43.87
2018-04-29T16:03:36.267Z,44.03
2018-04-29T16:06:03.706Z,43.63
2018-04-29T16:08:31.127Z,40.90
2018-04-29T16:10:58.578Z,41.50
2018-04-29T16:13:26.068Z,44.87
2018-04-29T16:15:53.506Z,47.13
2018-04-29T16:18:20.984Z,48.60
2018-04-29T16:20:48.425Z,46.03
2018-04-29T16:23:15.841Z,45.50
2018-04-29T16:25:43.289Z,46.10
2018-04-29T16:28:10.711Z,44.10
2018-04-29T16:30:38.168Z,45.17
2018-04-29T16:33:05.586Z,54.10
2018-04-29T16:35:33.082Z,46.27
2018-04-29T16:38:00.695Z,43.07
2018-04-29T16:40:28.070Z,43.90
2018-04-29T16:42:55.518Z,42.87
2018-04-29T16:45:22.933Z,42.17
2018-04-29T16:47:50.378Z,38.73
2018-04-29T16:50:17.850Z,41.90
2018-04-29T16:52:45.301Z,42.90
2018-04-29T16:55:12.722Z,40.37
2018-04-29T16:57:40.179Z,38.07
2018-04-29T17:00:07.601Z,39.77
2018-04-29T17:02:35.102Z,40.97
2018-04-29T17:05:02.513Z,38.97
2018-04-29T17:07:29.962Z,39.40
2018-04-29T17:09:58.351Z,35.37
2018-04-29T17:12:25.793Z,37.80
2018-04-29T17:14:53.220Z,35.47
2018-04-29T17:17:20.657Z,35.80
2018-04-29T17:19:48.079Z,35.43
2018-04-29T17:22:15.774Z,35.93
2018-04-29T17:24:43.237Z,34.10
2018-04-29T17:27:10.653Z,34.30
2018-04-29T17:29:38.099Z,31.00
2018-04-29T17:32:05.519Z,29.03
2018-04-29T17:34:32.957Z,31.93
2018-04-29T17:37:00.427Z,30.37
2018-04-29T17:39:27.881Z,29.47
2018-04-29T17:41:55.307Z,29.03
2018-04-29T17:44:22.785Z,27.57
2018-04-29T17:46:50.342Z,27.03
2018-04-29T17:49:18.694Z,26.07
2018-04-29T17:51:46.282Z,25.27
2018-04-29T17:54:13.742Z,28.10
2018-04-29T17:56:42.130Z,28.40
2018-04-29T17:59:09.582Z,25.23
2018-04-29T18:01:37.929Z,26.63
2018-04-29T18:04:05.406Z,25.20
2018-04-29T18:06:32.829Z,27.33
2018-04-29T18:09:00.298Z,25.70
2018-04-29T18:11:27.726Z,23.70
2018-04-29T18:13:55.149Z,26.87
2018-04-29T18:16:23.518Z,26.63
2018-04-29T18:18:51.853Z,26.90
2018-04-29T18:21:19.382Z,25.77
2018-04-29T18:23:46.756Z,25.10
2018-04-29T18:26:14.202Z,25.60
2018-04-29T18:28:41.634Z,27.00
2018-04-29T18:31:09.170Z,23.00
2018-04-29T18:33:36.733Z,24.60
2018-04-29T18:36:04.294Z,21.70
2018-04-29T18:38:31.723Z,23.80
2018-04-29T18:40:59.166Z,21.90
2018-04-29T18:43:26.591Z,21.37
2018-04-29T18:45:54.038Z,20.60
2018-04-29T18:48:21.479Z,18.43
2018-04-29T18:50:49.028Z,19.27
2018-04-29T18:53:16.383Z,18.33
2018-04-29T18:55:43.826Z,18.80
2018-04-29T18:58:11.248Z,16.77
2018-04-29T19:00:38.665Z,17.20
2018-04-29T19:03:06.112Z,16.90
2018-04-29T19:08:35.447Z,17.10
2018-04-29T19:11:02.913Z,16.97
2018-04-29T19:13:30.329Z,18.43
2018-04-29T19:15:57.746Z,18.60
2018-04-29T19:18:25.208Z,17.90
2018-04-29T19:20:52.632Z,17.10
2018-04-29T19:23:20.074Z,16.30
2018-04-29T19:25:47.501Z,16.67
2018-04-29T19:28:14.962Z,17.03
2018-04-29T19:30:42.438Z,17.30
2018-04-29T19:33:09.885Z,17.97
2018-04-29T19:35:37.315Z,18.00
2018-04-29T19:38:04.750Z,18.57
2018-04-29T19:40:32.261Z,18.77
2018-04-29T19:42:59.714Z,17.50
2018-04-29T19:45:27.182Z,16.50
2018-04-29T19:47:54.627Z,19.03
2018-04-29T19:50:22.055Z,18.97
2018-04-29T19:52:49.519Z,18.20
2018-04-29T19:55:16.942Z,19.27
2018-04-29T19:57:45.381Z,19.30
2018-04-29T20:00:12.833Z,20.10
2018-04-29T20:02:40.270Z,19.40
2018-04-29T20:05:08.625Z,20.20
2018-04-29T20:07:36.141Z,23.40
2018-04-29T20:10:03.586Z,20.97
2018-04-29T20:12:31.234Z,21.73
2018-04-29T20:14:59.006Z,21.70
2018-04-29T20:17:26.876Z,23.77
2018-04-29T20:19:54.679Z,24.13
2018-04-29T20:22:22.116Z,23.80
2018-04-29T20:24:49.564Z,24.37
2018-04-29T20:27:17.013Z,26.35
2018-04-29T20:29:44.458Z,26.20
2018-04-29T20:32:11.894Z,26.10
2018-04-29T20:34:41.326Z,27.40
2018-04-29T20:37:08.741Z,30.17
2018-04-29T20:39:36.246Z,31.17
2018-04-29T20:42:03.690Z,32.43
2018-04-29T20:44:31.105Z,32.67
2018-04-29T20:46:58.590Z,34.53
2018-04-29T20:49:26.010Z,35.93
2018-04-29T20:51:53.458Z,33.80
2018-04-29T20:54:20.993Z,36.00
2018-04-29T20:56:48.426Z,35.50
2018-04-29T20:59:15.846Z,37.67
2018-04-29T21:01:43.313Z,35.73
2018-04-29T21:04:11.698Z,36.80
2018-04-29T21:06:39.149Z,33.90
2018-04-29T21:09:06.573Z,35.20
2018-04-29T21:11:34.433Z,34.43
2018-04-29T21:14:01.857Z,35.03
2018-04-29T21:16:29.283Z,35.77
2018-04-29T21:18:56.742Z,34.53
2018-04-29T21:21:25.122Z,31.97
2018-04-29T21:23:52.573Z,31.90
2018-04-29T21:26:20.084Z,33.10
2018-04-29T21:28:47.526Z,27.70
2018-04-29T21:31:14.945Z,27.23
2018-04-29T21:33:42.407Z,27.33
2018-04-29T21:36:09.826Z,25.80
2018-04-29T21:38:37.265Z,27.50
2018-04-29T21:41:05.597Z,28.47
2018-04-29T21:43:33.081Z,27.13
2018-04-29T21:46:01.434Z,26.70
2018-04-29T21:48:28.926Z,25.33
2018-04-29T21:50:56.345Z,25.17
2018-04-29T21:53:23.813Z,25.80
2018-04-29T21:55:51.242Z,26.67
2018-04-29T21:58:18.749Z,26.73
2018-04-29T22:00:47.131Z,26.50
2018-04-29T22:03:14.586Z,26.30
2018-04-29T22:05:42.042Z,26.07
2018-04-29T22:08:09.530Z,27.17
2018-04-29T22:10:36.976Z,26.57
2018-04-29T22:13:04.452Z,26.27
2018-04-29T22:15:31.903Z,27.03
2018-04-29T22:17:59.361Z,26.60
2018-04-29T22:20:27.873Z,27.10
2018-04-29T22:22:55.303Z,25.77
2018-04-29T22:25:22.770Z,27.90
2018-04-29T22:27:50.222Z,28.87
2018-04-29T22:30:17.637Z,29.07
2018-04-29T22:32:46.010Z,29.93
2018-04-29T22:35:13.506Z,29.03
2018-04-29T22:37:40.986Z,28.73
2018-04-29T22:40:08.401Z,30.23
2018-04-29T22:42:35.855Z,29.87
2018-04-29T22:45:03.286Z,26.10
2018-04-29T22:47:30.733Z,25.00
2018-04-29T22:49:58.166Z,27.23
2018-04-29T22:52:26.534Z,27.67
2018-04-29T22:54:54.049Z,25.80
2018-04-29T22:57:21.577Z,29.23
2018-04-29T22:59:48.994Z,29.97
2018-04-29T23:02:16.426Z,28.80
2018-04-29T23:04:43.878Z,28.43
2018-04-29T23:07:11.314Z,29.97
2018-04-29T23:09:38.757Z,29.10
2018-04-29T23:12:06.250Z,29.93
2018-04-29T23:14:33.697Z,29.93
2018-04-29T23:17:01.126Z,29.57
2018-04-29T23:19:28.617Z,29.17
2018-04-29T23:21:56.185Z,30.67
2018-04-29T23:24:23.641Z,28.33
2018-04-29T23:26:54.025Z,31.80
2018-04-29T23:29:21.465Z,28.57
2018-04-29T23:31:48.978Z,27.17
2018-04-29T23:34:17.343Z,26.20
2018-04-29T23:36:44.766Z,28.00
2018-04-29T23:39:13.187Z,26.53
2018-04-29T23:41:40.606Z,25.20
2018-04-29T23:44:08.034Z,27.10
2018-04-29T23:46:35.498Z,26.37
2018-04-29T23:49:02.910Z,25.93
2018-04-29T23:51:30.358Z,26.90
2018-04-29T23:53:57.773Z,25.57
2018-04-29T23:56:25.230Z,26.80
2018-04-29T23:58:52.646Z,26.53
